createdAt,value
2018-05-04T06:15:21.956Z,53.16
2018-05-04T06:17:47.606Z,49.50
2018-05-04T06:20:13.190Z,49.25
2018-05-04T06:22:38.960Z,50.26
2018-05-04T06:25:04.556Z,50.85
2018-05-04T06:27:30.088Z,50.03
2018-05-04T06:29:56.173Z,50.08
2018-05-04T16:34:04.928Z,34.68
2018-05-04T16:36:30.669Z,33.66
2018-05-04T16:38:56.236Z,33.64
2018-05-04T16:41:21.874Z,33.56
2018-05-04T16:43:48.058Z,33.30
2018-05-04T16:46:32.222Z,33.73
2018-05-04T16:49:16.748Z,33.71
2018-05-04T16:51:42.302Z,33.82
2018-05-04T16:54:07.947Z,34.41
2018-05-04T16:56:33.933Z,34.32
2018-05-04T16:58:59.481Z,33.83
2018-05-04T17:01:25.201Z,33.47
2018-05-04T17:03:50.850Z,33.68
2018-05-04T17:06:16.462Z,33.35
2018-05-04T17:08:42.417Z,34.06
2018-05-04T17:11:07.934Z,33.79
2018-05-04T17:13:33.750Z,33.79
2018-05-04T17:15:59.535Z,33.74
2018-05-04T17:18:25.134Z,34.24
2018-05-04T17:20:50.771Z,33.72
2018-05-04T17:23:16.567Z,34.34
2018-05-04T17:25:42.236Z,34.46
2018-05-04T17:28:07.812Z,34.13
2018-05-04T17:30:33.596Z,33.98
2018-05-04T17:32:59.351Z,33.90
2018-05-04T17:35:24.956Z,33.67
2018-05-04T17:37:50.737Z,33.76
2018-05-04T17:40:16.424Z,33.82
2018-05-04T17:42:41.941Z,33.46
2018-05-04T17:45:07.991Z,33.84
2018-05-04T17:47:33.684Z,33.90
2018-05-04T17:49:59.186Z,33.76
2018-05-04T17:52:25.012Z,34.30
2018-05-04T17:54:50.738Z,34.03
2018-05-04T17:57:16.306Z,33.52
2018-05-04T17:59:42.207Z,34.03
2018-05-04T18:02:07.773Z,33.45
2018-05-04T18:04:33.391Z,33.86
2018-05-04T18:06:59.222Z,33.99
2018-05-04T18:09:24.786Z,33.97
2018-05-04T18:11:50.413Z,33.92
2018-05-04T18:14:16.226Z,34.01
2018-05-04T18:16:41.793Z,33.99
2018-05-04T18:19:07.512Z,34.18
2018-05-04T18:21:33.212Z,33.96
2018-05-04T18:23:58.785Z,33.99
2018-05-04T18:26:24.411Z,33.82
2018-05-04T18:28:50.259Z,33.58
2018-05-04T18:31:15.903Z,33.67
2018-05-04T18:33:41.444Z,33.50
2018-05-04T18:36:07.230Z,33.97
2018-05-04T18:38:32.789Z,33.97
2018-05-04T18:40:58.349Z,34.17
2018-05-04T18:43:24.190Z,34.14
2018-05-04T18:45:50.051Z,34.19
2018-05-04T18:48:15.623Z,33.32
2018-05-04T18:50:41.340Z,34.05
2018-05-04T18:53:06.978Z,34.41
2018-05-04T18:55:32.547Z,33.63
2018-05-04T18:57:58.344Z,33.45
2018-05-04T19:00:24.127Z,34.25
2018-05-04T19:03:08.433Z,33.81
2018-05-04T19:05:34.356Z,34.36
2018-05-04T19:07:59.971Z,34.70
2018-05-04T19:10:25.704Z,34.76
2018-05-04T19:12:51.526Z,34.68
2018-05-04T19:15:17.101Z,34.65
2018-05-04T19:17:42.725Z,34.72
2018-05-04T19:20:08.601Z,33.90
2018-05-04T19:22:34.181Z,34.15
2018-05-04T19:24:59.733Z,34.34
2018-05-04T19:27:25.445Z,34.75
2018-05-04T19:29:51.003Z,34.94
2018-05-04T19:32:16.563Z,34.98
2018-05-04T19:34:42.431Z,35.10
2018-05-04T19:37:07.898Z,35.57
2018-05-04T19:39:33.681Z,36.17
2018-05-04T19:41:59.494Z,36.17
2018-05-04T19:44:25.069Z,35.79
2018-05-04T19:46:50.726Z,35.96
2018-05-04T19:49:16.476Z,35.56
2018-05-04T19:51:42.057Z,35.32
2018-05-04T19:54:07.931Z,35.75
2018-05-04T19:56:33.741Z,35.82
2018-05-04T19:58:59.331Z,35.95
2018-05-04T20:01:25.124Z,35.89
2018-05-04T20:03:50.886Z,36.19
2018-05-04T20:06:16.535Z,36.26
2018-05-04T20:08:42.091Z,36.73
2018-05-04T20:11:07.929Z,37.00
2018-05-04T20:13:33.481Z,37.31
2018-05-04T20:15:59.040Z,37.31
2018-05-04T20:18:25.226Z,36.98
2018-05-04T20:20:51.070Z,36.98
2018-05-04T20:23:16.611Z,37.31
2018-05-04T20:25:42.354Z,36.90
2018-05-04T20:28:07.975Z,37.03
2018-05-04T20:30:33.593Z,37.77
2018-05-04T20:32:59.320Z,37.75
2018-05-04T20:35:25.456Z,37.82
2018-05-04T20:37:51.015Z,37.32
2018-05-04T20:40:16.996Z,37.06
2018-05-04T20:42:43.200Z,37.33
2018-05-04T20:45:08.789Z,37.31
2018-05-04T20:47:34.415Z,37.66
2018-05-04T20:50:00.844Z,37.46
2018-05-04T20:52:26.418Z,37.60
2018-05-04T20:54:51.978Z,37.03
2018-05-04T20:57:18.327Z,36.93
2018-05-04T20:59:43.898Z,37.47
2018-05-04T21:02:09.528Z,37.19
2018-05-04T21:04:35.618Z,37.79
2018-05-04T21:07:01.636Z,37.74
2018-05-04T21:09:27.262Z,37.86
2018-05-04T21:11:54.923Z,37.96
2018-05-04T21:14:20.476Z,38.39
2018-05-04T21:16:46.109Z,37.99
2018-05-04T21:19:12.069Z,37.75
2018-05-04T21:21:38.170Z,37.96
2018-05-04T21:24:03.734Z,37.71
2018-05-04T21:26:29.809Z,38.08
2018-05-04T21:28:55.372Z,38.52
2018-05-04T21:31:21.013Z,38.40
2018-05-04T21:33:47.227Z,38.87
2018-05-04T21:36:12.809Z,38.83
2018-05-04T21:38:38.372Z,38.40
2018-05-04T21:41:04.528Z,38.55
2018-05-04T21:43:30.155Z,38.52
2018-05-04T21:45:55.740Z,38.88
2018-05-04T21:48:21.954Z,38.92
2018-05-04T21:50:47.985Z,38.57
2018-05-04T21:53:13.608Z,38.72
2018-05-04T21:55:39.670Z,38.27
2018-05-04T21:58:05.243Z,39.41
2018-05-04T22:00:30.809Z,39.44
2018-05-04T22:02:56.613Z,39.14
2018-05-04T22:05:22.172Z,39.44
2018-05-04T22:07:47.731Z,39.72
2018-05-04T22:10:13.425Z,39.51
2018-05-04T22:12:39.052Z,39.92
2018-05-04T22:15:04.815Z,39.86
2018-05-04T22:17:30.376Z,40.55
2018-05-04T22:19:56.144Z,41.30
2018-05-04T22:22:21.901Z,41.61
2018-05-04T22:24:47.501Z,42.99
2018-05-04T22:27:13.269Z,42.66
2018-05-04T22:29:39.037Z,41.65
2018-05-04T22:32:04.655Z,42.60
2018-05-04T22:34:30.243Z,42.90
2018-05-04T22:36:56.097Z,43.20
2018-05-04T22:39:21.685Z,43.02
2018-05-04T22:41:47.313Z,42.60
2018-05-04T22:44:13.113Z,42.72
2018-05-04T22:46:38.736Z,43.00
2018-05-04T22:49:04.304Z,42.83
2018-05-04T22:51:30.093Z,41.96
2018-05-04T22:53:55.652Z,42.74
2018-05-04T22:56:21.507Z,43.11
2018-05-04T22:58:47.345Z,43.93
2018-05-04T23:01:12.913Z,43.40
2018-05-04T23:03:38.488Z,44.01
2018-05-04T23:06:04.635Z,44.25
2018-05-04T23:08:30.202Z,42.68
2018-05-04T23:10:55.824Z,42.85
2018-05-04T23:13:21.603Z,43.62
2018-05-04T23:15:47.233Z,43.16
2018-05-04T23:18:12.866Z,43.13
2018-05-04T23:20:38.614Z,43.23
2018-05-04T23:23:04.179Z,42.25
2018-05-04T23:25:29.890Z,43.39
2018-05-04T23:27:55.656Z,43.21
2018-05-04T23:30:21.293Z,42.98
2018-05-04T23:32:46.856Z,43.47
2018-05-04T23:35:12.679Z,43.15
2018-05-04T23:37:38.241Z,42.98
2018-05-04T23:40:03.888Z,43.30
2018-05-04T23:42:29.655Z,42.91
2018-05-04T23:44:55.277Z,43.07
2018-05-04T23:47:20.849Z,42.87
2018-05-04T23:49:46.640Z,42.93
2018-05-04T23:52:12.434Z,43.78
2018-05-04T23:54:38.003Z,43.56
2018-05-04T23:57:03.894Z,43.91
2018-05-04T23:59:29.445Z,43.26
